Orlando, Florida
Traffic Map
Current Weather Conditions
Orlando, Florida
Clear
Clear
28°
Feels Like: 32°
Wind Chill: 28° Ceiling: Unl
Heat Index: 32° Visibility: 10mi
Dew Point: 24° Wind: 7mph
Humidity: 82% Direction: 190° (S)
Pressure: 30.07in Gusts: 0mph
Raw Report DataKORL 241253Z 19006KT 10SM CLR 28/24 A3007 RMK AO2 SLP185 T02780244
Traffic Incident Summary
Active as of:
Severity:
Category:
InformationThere was an issue retrieving the traffic information for this location. Please try a different location or try again shortly.
Advertisements
Track Severe Weather on mobile